createdAt,value
2019-05-11T00:13:17.781Z,12.10
2019-05-11T00:43:20.382Z,11.20
2019-05-11T01:13:23.014Z,11.00
2019-05-11T01:43:25.600Z,11.10
2019-05-11T02:13:28.208Z,10.40
2019-05-11T02:43:30.825Z,10.00
2019-05-11T03:13:36.409Z,10.50
2019-05-11T03:43:39.079Z,10.60
2019-05-11T04:13:41.677Z,10.90
2019-05-11T04:43:44.277Z,11.40
2019-05-11T05:13:46.911Z,11.00
2019-05-11T05:43:49.516Z,11.10
2019-05-11T06:13:52.222Z,11.90
2019-05-11T06:44:01.655Z,13.00
2019-05-11T07:13:59.169Z,13.60
2019-05-11T07:44:01.749Z,14.60
2019-05-11T08:14:07.823Z,15.50
2019-05-11T08:44:10.494Z,15.90
2019-05-11T09:14:13.088Z,16.70
2019-05-11T09:44:18.045Z,17.60
2019-05-11T10:14:22.898Z,18.60
2019-05-11T10:44:27.925Z,19.30
2019-05-11T11:14:29.768Z,20.60
2019-05-11T11:44:32.730Z,22.20
2019-05-11T12:14:35.341Z,22.60
2019-05-11T12:44:38.789Z,21.10
2019-05-11T13:14:41.633Z,20.50
2019-05-11T13:44:44.260Z,20.10
2019-05-11T14:14:48.115Z,19.90
2019-05-11T14:44:50.818Z,19.40
2019-05-11T15:14:53.425Z,18.60
2019-05-11T15:44:56.052Z,18.00
2019-05-11T16:14:58.691Z,18.00
2019-05-11T16:45:01.308Z,17.70
2019-05-11T17:15:08.830Z,17.80
2019-05-11T17:45:12.149Z,17.40
2019-05-11T18:15:14.826Z,17.10
2019-05-11T18:45:18.875Z,17.30
2019-05-11T19:15:21.697Z,17.20
2019-05-11T19:45:25.103Z,17.10
2019-05-11T20:15:27.712Z,17.10
2019-05-11T20:45:30.357Z,16.70
2019-05-11T21:15:33.045Z,16.60
2019-05-11T21:45:38.293Z,16.00
2019-05-11T22:15:39.920Z,15.90
2019-05-11T22:45:42.540Z,16.00
2019-05-11T23:15:47.649Z,16.00
2019-05-11T23:45:49.456Z,16.20
